sensor_id;sensor_type;location;lat;lon;timestamp;P1;durP1;ratioP1;P2;durP2;ratioP2
23252;SDS011;11795;47.054;15.408;2023-03-15T00:00:00;1.4;;;0.2;;
23252;SDS011;11795;47.054;15.408;2023-03-15T00:02:00;0.4;;;0.3;;
23252;SDS011;11795;47.054;15.408;2023-03-15T00:04:00;0.4;;;0.3;;
23252;SDS011;11795;47.054;15.408;2023-03-15T00:06:00;1.4;;;0.4;;
23252;SDS011;11795;47.054;15.408;2023-03-15T00:08:01;1.4;;;0.4;;
23252;SDS011;11795;47.054;15.408;2023-03-15T00:10:01;1.4;;;0.4;;
23252;SDS011;11795;47.054;15.408;2023-03-15T00:12:00;0.9;;;0.3;;
23252;SDS011;11795;47.054;15.408;2023-03-15T00:14:01;0.9;;;0.3;;
23252;SDS011;11795;47.054;15.408;2023-03-15T00:16:02;0.9;;;0.2;;
23252;SDS011;11795;47.054;15.408;2023-03-15T00:18:02;0.9;;;0.2;;
23252;SDS011;11795;47.054;15.408;2023-03-15T00:20:00;0.9;;;0.2;;
23252;SDS011;11795;47.054;15.408;2023-03-15T00:22:00;0.8;;;0.2;;
23252;SDS011;11795;47.054;15.408;2023-03-15T00:24:00;0.8;;;0.2;;
23252;SDS011;11795;47.054;15.408;2023-03-15T00:26:00;0.8;;;0.2;;
23252;SDS011;11795;47.054;15.408;2023-03-15T00:28:00;0.8;;;0.2;;
23252;SDS011;11795;47.054;15.408;2023-03-15T00:30:00;0.8;;;0.2;;
23252;SDS011;11795;47.054;15.408;2023-03-15T00:32:00;0.6;;;0.2;;
23252;SDS011;11795;47.054;15.408;2023-03-15T00:34:00;0.6;;;0.2;;
23252;SDS011;11795;47.054;15.408;2023-03-15T00:36:02;1.1;;;0.2;;
23252;SDS011;11795;47.054;15.408;2023-03-15T00:38:00;1.1;;;0.2;;
23252;SDS011;11795;47.054;15.408;2023-03-15T00:40:00;1.1;;;0.2;;
23252;SDS011;11795;47.054;15.408;2023-03-15T00:42:00;0.8;;;0.3;;
23252;SDS011;11795;47.054;15.408;2023-03-15T00:44:00;0.8;;;0.3;;
23252;SDS011;11795;47.054;15.408;2023-03-15T00:46:01;0.5;;;0.2;;
23252;SDS011;11795;47.054;15.408;2023-03-15T00:48:00;0.5;;;0.2;;
23252;SDS011;11795;47.054;15.408;2023-03-15T00:50:00;0.5;;;0.2;;
23252;SDS011;11795;47.054;15.408;2023-03-15T00:52:00;0.5;;;0.3;;
23252;SDS011;11795;47.054;15.408;2023-03-15T00:54:00;0.5;;;0.3;;
23252;SDS011;11795;47.054;15.408;2023-03-15T00:56:04;0.8;;;0.2;;
23252;SDS011;11795;47.054;15.408;2023-03-15T00:58:00;0.8;;;0.2;;
23252;SDS011;11795;47.054;15.408;2023-03-15T01:00:08;0.8;;;0.2;;
23252;SDS011;11795;47.054;15.408;2023-03-15T01:02:00;0.6;;;0.2;;
23252;SDS011;11795;47.054;15.408;2023-03-15T01:04:00;0.6;;;0.2;;
23252;SDS011;11795;47.054;15.408;2023-03-15T01:06:03;0.4;;;0.2;;
23252;SDS011;11795;47.054;15.408;2023-03-15T01:08:02;0.4;;;0.2;;
23252;SDS011;11795;47.054;15.408;2023-03-15T01:10:01;0.4;;;0.2;;
23252;SDS011;11795;47.054;15.408;2023-03-15T01:12:00;0.6;;;0.2;;
23252;SDS011;11795;47.054;15.408;2023-03-15T01:14:02;0.6;;;0.2;;
23252;SDS011;11795;47.054;15.408;2023-03-15T01:16:00;1.4;;;0.9;;
23252;SDS011;11795;47.054;15.408;2023-03-15T01:18:00;1.4;;;0.9;;
23252;SDS011;11795;47.054;15.408;2023-03-15T01:20:00;1.4;;;0.9;;
23252;SDS011;11795;47.054;15.408;2023-03-15T01:22:00;0.4;;;0.2;;
23252;SDS011;11795;47.054;15.408;2023-03-15T01:24:00;0.4;;;0.2;;
23252;SDS011;11795;47.054;15.408;2023-03-15T01:26:01;0.6;;;0.2;;
23252;SDS011;11795;47.054;15.408;2023-03-15T01:28:00;0.6;;;0.2;;
23252;SDS011;11795;47.054;15.408;2023-03-15T01:30:01;0.6;;;0.2;;
23252;SDS011;11795;47.054;15.408;2023-03-15T01:32:00;1.3;;;0.3;;
23252;SDS011;11795;47.054;15.408;2023-03-15T01:34:00;1.3;;;0.3;;
23252;SDS011;11795;47.054;15.408;2023-03-15T01:36:02;0.6;;;0.2;;
23252;SDS011;11795;47.054;15.408;2023-03-15T01:38:00;0.6;;;0.2;;
23252;SDS011;11795;47.054;15.408;2023-03-15T01:40:00;0.6;;;0.2;;
23252;SDS011;11795;47.054;15.408;2023-03-15T01:42:00;0.9;;;0.4;;
23252;SDS011;11795;47.054;15.408;2023-03-15T01:44:00;0.9;;;0.4;;
23252;SDS011;11795;47.054;15.408;2023-03-15T01:46:02;1.0;;;0.3;;
23252;SDS011;11795;47.054;15.408;2023-03-15T01:48:00;1.0;;;0.3;;
23252;SDS011;11795;47.054;15.408;2023-03-15T01:50:02;1.0;;;0.3;;
23252;SDS011;11795;47.054;15.408;2023-03-15T01:52:01;1.2;;;0.2;;
23252;SDS011;11795;47.054;15.408;2023-03-15T01:54:02;1.2;;;0.2;;
23252;SDS011;11795;47.054;15.408;2023-03-15T01:56:00;0.8;;;0.3;;
23252;SDS011;11795;47.054;15.408;2023-03-15T01:58:00;0.8;;;0.3;;
23252;SDS011;11795;47.054;15.408;2023-03-15T02:00:03;0.8;;;0.3;;
23252;SDS011;11795;47.054;15.408;2023-03-15T02:02:00;0.4;;;0.2;;
23252;SDS011;11795;47.054;15.408;2023-03-15T02:04:01;0.4;;;0.2;;
23252;SDS011;11795;47.054;15.408;2023-03-15T02:06:02;0.9;;;0.2;;
23252;SDS011;11795;47.054;15.408;2023-03-15T02:08:00;0.9;;;0.2;;
23252;SDS011;11795;47.054;15.408;2023-03-15T02:10:01;0.9;;;0.2;;
23252;SDS011;11795;47.054;15.408;2023-03-15T02:12:00;1.0;;;0.4;;
23252;SDS011;11795;47.054;15.408;2023-03-15T02:14:02;1.0;;;0.4;;
23252;SDS011;11795;47.054;15.408;2023-03-15T02:16:00;0.3;;;0.2;;
23252;SDS011;11795;47.054;15.408;2023-03-15T02:18:01;0.3;;;0.2;;
23252;SDS011;11795;47.054;15.408;2023-03-15T02:20:02;0.3;;;0.2;;
23252;SDS011;11795;47.054;15.408;2023-03-15T02:22:04;0.6;;;0.2;;
23252;SDS011;11795;47.054;15.408;2023-03-15T02:24:02;0.6;;;0.2;;
23252;SDS011;11795;47.054;15.408;2023-03-15T02:26:02;1.3;;;0.3;;
23252;SDS011;11795;47.054;15.408;2023-03-15T02:28:00;1.3;;;0.3;;
23252;SDS011;11795;47.054;15.408;2023-03-15T02:30:03;1.3;;;0.3;;
23252;SDS011;11795;47.054;15.408;2023-03-15T02:32:03;0.8;;;0.2;;
23252;SDS011;11795;47.054;15.408;2023-03-15T02:34:03;0.8;;;0.2;;
23252;SDS011;11795;47.054;15.408;2023-03-15T02:36:09;1.1;;;0.2;;
23252;SDS011;11795;47.054;15.408;2023-03-15T02:38:01;1.1;;;0.2;;
23252;SDS011;11795;47.054;15.408;2023-03-15T02:40:00;1.1;;;0.2;;
23252;SDS011;11795;47.054;15.408;2023-03-15T02:42:01;0.6;;;0.2;;
23252;SDS011;11795;47.054;15.408;2023-03-15T02:44:01;0.6;;;0.2;;
23252;SDS011;11795;47.054;15.408;2023-03-15T02:46:00;1.8;;;0.4;;
23252;SDS011;11795;47.054;15.408;2023-03-15T02:48:00;1.8;;;0.4;;
23252;SDS011;11795;47.054;15.408;2023-03-15T02:50:00;1.8;;;0.4;;
23252;SDS011;11795;47.054;15.408;2023-03-15T02:52:00;0.9;;;0.3;;
23252;SDS011;11795;47.054;15.408;2023-03-15T02:54:00;0.9;;;0.3;;
23252;SDS011;11795;47.054;15.408;2023-03-15T02:56:00;1.5;;;0.2;;
23252;SDS011;11795;47.054;15.408;2023-03-15T02:58:00;1.5;;;0.2;;
23252;SDS011;11795;47.054;15.408;2023-03-15T03:00:11;1.5;;;0.2;;
23252;SDS011;11795;47.054;15.408;2023-03-15T03:02:00;0.5;;;0.2;;
23252;SDS011;11795;47.054;15.408;2023-03-15T03:04:00;0.5;;;0.2;;
23252;SDS011;11795;47.054;15.408;2023-03-15T03:06:00;1.4;;;0.2;;
23252;SDS011;11795;47.054;15.408;2023-03-15T03:08:01;1.4;;;0.2;;
23252;SDS011;11795;47.054;15.408;2023-03-15T03:10:00;1.4;;;0.2;;
23252;SDS011;11795;47.054;15.408;2023-03-15T03:12:00;0.6;;;0.1;;
23252;SDS011;11795;47.054;15.408;2023-03-15T03:14:00;0.6;;;0.1;;
23252;SDS011;11795;47.054;15.408;2023-03-15T03:16:00;0.6;;;0.2;;
23252;SDS011;11795;47.054;15.408;2023-03-15T03:18:00;0.6;;;0.2;;
23252;SDS011;11795;47.054;15.408;2023-03-15T03:20:00;0.6;;;0.2;;
23252;SDS011;11795;47.054;15.408;2023-03-15T03:22:00;1.1;;;0.2;;
23252;SDS011;11795;47.054;15.408;2023-03-15T03:24:00;1.1;;;0.2;;
23252;SDS011;11795;47.054;15.408;2023-03-15T03:26:00;0.4;;;0.1;;
23252;SDS011;11795;47.054;15.408;2023-03-15T03:28:03;0.4;;;0.1;;
23252;SDS011;11795;47.054;15.408;2023-03-15T03:30:00;0.4;;;0.1;;
23252;SDS011;11795;47.054;15.408;2023-03-15T03:32:00;0.4;;;0.1;;
23252;SDS011;11795;47.054;15.408;2023-03-15T03:34:00;0.4;;;0.1;;
23252;SDS011;11795;47.054;15.408;2023-03-15T03:36:01;0.5;;;0.2;;
23252;SDS011;11795;47.054;15.408;2023-03-15T03:38:00;0.5;;;0.2;;
23252;SDS011;11795;47.054;15.408;2023-03-15T03:40:00;0.5;;;0.2;;
23252;SDS011;11795;47.054;15.408;2023-03-15T03:42:01;0.9;;;0.2;;
23252;SDS011;11795;47.054;15.408;2023-03-15T03:44:00;0.9;;;0.2;;
23252;SDS011;11795;47.054;15.408;2023-03-15T03:46:00;0.2;;;0.1;;
23252;SDS011;11795;47.054;15.408;2023-03-15T03:48:00;0.2;;;0.1;;
23252;SDS011;11795;47.054;15.408;2023-03-15T03:50:00;0.2;;;0.1;;
23252;SDS011;11795;47.054;15.408;2023-03-15T03:52:01;0.3;;;0.2;;
23252;SDS011;11795;47.054;15.408;2023-03-15T03:54:00;0.3;;;0.2;;
23252;SDS011;11795;47.054;15.408;2023-03-15T03:56:03;0.7;;;0.2;;
23252;SDS011;11795;47.054;15.408;2023-03-15T03:58:00;0.7;;;0.2;;
23252;SDS011;11795;47.054;15.408;2023-03-15T04:00:00;0.7;;;0.2;;
23252;SDS011;11795;47.054;15.408;2023-03-15T04:02:00;0.8;;;0.3;;
23252;SDS011;11795;47.054;15.408;2023-03-15T04:04:00;0.8;;;0.3;;
23252;SDS011;11795;47.054;15.408;2023-03-15T04:06:00;0.6;;;0.2;;
23252;SDS011;11795;47.054;15.408;2023-03-15T04:08:00;0.6;;;0.2;;
23252;SDS011;11795;47.054;15.408;2023-03-15T04:10:01;0.6;;;0.2;;
23252;SDS011;11795;47.054;15.408;2023-03-15T04:12:00;1.2;;;0.2;;
23252;SDS011;11795;47.054;15.408;2023-03-15T04:14:00;1.2;;;0.2;;
23252;SDS011;11795;47.054;15.408;2023-03-15T04:16:02;1.7;;;0.3;;
23252;SDS011;11795;47.054;15.408;2023-03-15T04:18:04;1.7;;;0.3;;
23252;SDS011;11795;47.054;15.408;2023-03-15T04:20:01;1.7;;;0.3;;
23252;SDS011;11795;47.054;15.408;2023-03-15T04:22:05;0.2;;;0.1;;
23252;SDS011;11795;47.054;15.408;2023-03-15T04:24:00;0.2;;;0.1;;
23252;SDS011;11795;47.054;15.408;2023-03-15T04:26:00;1.6;;;0.3;;
23252;SDS011;11795;47.054;15.408;2023-03-15T04:28:01;1.6;;;0.3;;
23252;SDS011;11795;47.054;15.408;2023-03-15T04:30:04;1.6;;;0.3;;
23252;SDS011;11795;47.054;15.408;2023-03-15T04:32:00;0.4;;;0.2;;
23252;SDS011;11795;47.054;15.408;2023-03-15T04:34:01;0.4;;;0.2;;
23252;SDS011;11795;47.054;15.408;2023-03-15T04:36:01;0.5;;;0.3;;
23252;SDS011;11795;47.054;15.408;2023-03-15T04:38:00;0.5;;;0.3;;
23252;SDS011;11795;47.054;15.408;2023-03-15T04:40:00;0.5;;;0.3;;
23252;SDS011;11795;47.054;15.408;2023-03-15T04:42:00;1.2;;;0.2;;
23252;SDS011;11795;47.054;15.408;2023-03-15T04:44:00;1.2;;;0.2;;
23252;SDS011;11795;47.054;15.408;2023-03-15T04:46:00;0.5;;;0.2;;
23252;SDS011;11795;47.054;15.408;2023-03-15T04:48:00;0.5;;;0.2;;
23252;SDS011;11795;47.054;15.408;2023-03-15T04:50:00;0.5;;;0.2;;
23252;SDS011;11795;47.054;15.408;2023-03-15T04:52:00;0.9;;;0.2;;
23252;SDS011;11795;47.054;15.408;2023-03-15T04:54:00;0.9;;;0.2;;
23252;SDS011;11795;47.054;15.408;2023-03-15T04:56:00;0.6;;;0.3;;
23252;SDS011;11795;47.054;15.408;2023-03-15T04:58:00;0.6;;;0.3;;
23252;SDS011;11795;47.054;15.408;2023-03-15T05:00:00;0.6;;;0.3;;
23252;SDS011;11795;47.054;15.408;2023-03-15T05:02:00;0.8;;;0.2;;
23252;SDS011;11795;47.054;15.408;2023-03-15T05:04:00;0.8;;;0.2;;
23252;SDS011;11795;47.054;15.408;2023-03-15T05:06:00;0.6;;;0.2;;
23252;SDS011;11795;47.054;15.408;2023-03-15T05:08:00;0.6;;;0.2;;
23252;SDS011;11795;47.054;15.408;2023-03-15T05:10:00;0.6;;;0.2;;
23252;SDS011;11795;47.054;15.408;2023-03-15T05:12:01;0.9;;;0.2;;
23252;SDS011;11795;47.054;15.408;2023-03-15T05:14:00;0.9;;;0.2;;
23252;SDS011;11795;47.054;15.408;2023-03-15T05:16:00;1.0;;;0.2;;
23252;SDS011;11795;47.054;15.408;2023-03-15T05:18:00;1.0;;;0.2;;
23252;SDS011;11795;47.054;15.408;2023-03-15T05:20:00;1.0;;;0.2;;
23252;SDS011;11795;47.054;15.408;2023-03-15T05:22:01;1.1;;;0.2;;
23252;SDS011;11795;47.054;15.408;2023-03-15T05:24:00;1.1;;;0.2;;
23252;SDS011;11795;47.054;15.408;2023-03-15T05:26:00;1.0;;;0.4;;
23252;SDS011;11795;47.054;15.408;2023-03-15T05:28:03;1.0;;;0.4;;
23252;SDS011;11795;47.054;15.408;2023-03-15T05:30:03;1.0;;;0.4;;
23252;SDS011;11795;47.054;15.408;2023-03-15T05:32:03;0.8;;;0.3;;
23252;SDS011;11795;47.054;15.408;2023-03-15T05:34:03;0.8;;;0.3;;
23252;SDS011;11795;47.054;15.408;2023-03-15T05:36:00;1.1;;;0.3;;
23252;SDS011;11795;47.054;15.408;2023-03-15T05:38:00;1.1;;;0.3;;
23252;SDS011;11795;47.054;15.408;2023-03-15T05:40:00;1.1;;;0.3;;
23252;SDS011;11795;47.054;15.408;2023-03-15T05:42:01;0.9;;;0.2;;
23252;SDS011;11795;47.054;15.408;2023-03-15T05:44:00;0.9;;;0.2;;
23252;SDS011;11795;47.054;15.408;2023-03-15T05:46:00;0.6;;;0.2;;
23252;SDS011;11795;47.054;15.408;2023-03-15T05:48:00;0.6;;;0.2;;
23252;SDS011;11795;47.054;15.408;2023-03-15T05:50:00;0.6;;;0.2;;
23252;SDS011;11795;47.054;15.408;2023-03-15T05:52:00;1.9;;;0.3;;
23252;SDS011;11795;47.054;15.408;2023-03-15T05:54:00;1.9;;;0.3;;
23252;SDS011;11795;47.054;15.408;2023-03-15T05:56:00;1.2;;;0.2;;
23252;SDS011;11795;47.054;15.408;2023-03-15T05:58:00;1.2;;;0.2;;
23252;SDS011;11795;47.054;15.408;2023-03-15T06:00:00;1.2;;;0.2;;
23252;SDS011;11795;47.054;15.408;2023-03-15T06:02:00;3.0;;;0.3;;
23252;SDS011;11795;47.054;15.408;2023-03-15T06:04:00;3.0;;;0.3;;
23252;SDS011;11795;47.054;15.408;2023-03-15T06:06:00;1.1;;;0.2;;
23252;SDS011;11795;47.054;15.408;2023-03-15T06:08:00;1.1;;;0.2;;
23252;SDS011;11795;47.054;15.408;2023-03-15T06:10:00;1.1;;;0.2;;
23252;SDS011;11795;47.054;15.408;2023-03-15T06:12:00;0.3;;;0.2;;
23252;SDS011;11795;47.054;15.408;2023-03-15T06:14:01;0.3;;;0.2;;
23252;SDS011;11795;47.054;15.408;2023-03-15T06:16:00;1.5;;;0.2;;
23252;SDS011;11795;47.054;15.408;2023-03-15T06:18:00;1.5;;;0.2;;
23252;SDS011;11795;47.054;15.408;2023-03-15T06:20:00;1.5;;;0.2;;
23252;SDS011;11795;47.054;15.408;2023-03-15T06:22:00;1.7;;;0.3;;
23252;SDS011;11795;47.054;15.408;2023-03-15T06:24:00;1.7;;;0.3;;
23252;SDS011;11795;47.054;15.408;2023-03-15T06:26:00;1.1;;;0.2;;
23252;SDS011;11795;47.054;15.408;2023-03-15T06:28:00;1.1;;;0.2;;
23252;SDS011;11795;47.054;15.408;2023-03-15T06:30:00;1.1;;;0.2;;
23252;SDS011;11795;47.054;15.408;2023-03-15T06:32:00;1.5;;;0.2;;
23252;SDS011;11795;47.054;15.408;2023-03-15T06:34:00;1.5;;;0.2;;
23252;SDS011;11795;47.054;15.408;2023-03-15T06:36:00;2.4;;;0.3;;
23252;SDS011;11795;47.054;15.408;2023-03-15T06:38:00;2.4;;;0.3;;
23252;SDS011;11795;47.054;15.408;2023-03-15T06:40:00;2.4;;;0.3;;
23252;SDS011;11795;47.054;15.408;2023-03-15T06:42:02;1.4;;;0.3;;
23252;SDS011;11795;47.054;15.408;2023-03-15T06:44:00;1.4;;;0.3;;
23252;SDS011;11795;47.054;15.408;2023-03-15T06:46:00;2.1;;;0.2;;
23252;SDS011;11795;47.054;15.408;2023-03-15T06:48:00;2.1;;;0.2;;
23252;SDS011;11795;47.054;15.408;2023-03-15T06:50:00;2.1;;;0.2;;
23252;SDS011;11795;47.054;15.408;2023-03-15T06:52:00;0.9;;;0.1;;
23252;SDS011;11795;47.054;15.408;2023-03-15T06:54:00;0.9;;;0.1;;
23252;SDS011;11795;47.054;15.408;2023-03-15T06:56:00;1.3;;;0.2;;
23252;SDS011;11795;47.054;15.408;2023-03-15T06:58:00;1.3;;;0.2;;
23252;SDS011;11795;47.054;15.408;2023-03-15T07:00:00;1.3;;;0.2;;
23252;SDS011;11795;47.054;15.408;2023-03-15T07:02:00;2.8;;;0.3;;
23252;SDS011;11795;47.054;15.408;2023-03-15T07:04:00;2.8;;;0.3;;
23252;SDS011;11795;47.054;15.408;2023-03-15T07:06:00;1.0;;;0.2;;
23252;SDS011;11795;47.054;15.408;2023-03-15T07:08:00;1.0;;;0.2;;
23252;SDS011;11795;47.054;15.408;2023-03-15T07:10:00;1.0;;;0.2;;
23252;SDS011;11795;47.054;15.408;2023-03-15T07:12:00;1.2;;;0.2;;
23252;SDS011;11795;47.054;15.408;2023-03-15T07:14:00;1.2;;;0.2;;
23252;SDS011;11795;47.054;15.408;2023-03-15T07:16:00;1.7;;;0.2;;
23252;SDS011;11795;47.054;15.408;2023-03-15T07:18:00;1.7;;;0.2;;
23252;SDS011;11795;47.054;15.408;2023-03-15T07:20:00;1.7;;;0.2;;
23252;SDS011;11795;47.054;15.408;2023-03-15T07:22:00;1.7;;;0.2;;
23252;SDS011;11795;47.054;15.408;2023-03-15T07:24:01;1.7;;;0.2;;
23252;SDS011;11795;47.054;15.408;2023-03-15T07:26:00;2.2;;;0.2;;
23252;SDS011;11795;47.054;15.408;2023-03-15T07:28:00;2.2;;;0.2;;
23252;SDS011;11795;47.054;15.408;2023-03-15T07:30:00;2.2;;;0.2;;
23252;SDS011;11795;47.054;15.408;2023-03-15T07:32:00;0.4;;;0.1;;
23252;SDS011;11795;47.054;15.408;2023-03-15T07:34:00;0.4;;;0.1;;
23252;SDS011;11795;47.054;15.408;2023-03-15T07:36:03;1.7;;;0.3;;
23252;SDS011;11795;47.054;15.408;2023-03-15T07:38:00;1.7;;;0.3;;
23252;SDS011;11795;47.054;15.408;2023-03-15T07:40:09;1.7;;;0.3;;
23252;SDS011;11795;47.054;15.408;2023-03-15T07:42:00;0.9;;;0.2;;
23252;SDS011;11795;47.054;15.408;2023-03-15T07:44:00;0.9;;;0.2;;
23252;SDS011;11795;47.054;15.408;2023-03-15T07:46:00;0.6;;;0.1;;
23252;SDS011;11795;47.054;15.408;2023-03-15T07:48:00;0.6;;;0.1;;
23252;SDS011;11795;47.054;15.408;2023-03-15T07:50:00;0.6;;;0.1;;
23252;SDS011;11795;47.054;15.408;2023-03-15T07:52:00;0.4;;;0.1;;
23252;SDS011;11795;47.054;15.408;2023-03-15T07:54:00;0.4;;;0.1;;
23252;SDS011;11795;47.054;15.408;2023-03-15T07:56:00;0.4;;;0.1;;
23252;SDS011;11795;47.054;15.408;2023-03-15T07:58:00;1.1;;;0.1;;
23252;SDS011;11795;47.054;15.408;2023-03-15T08:00:00;1.1;;;0.1;;
23252;SDS011;11795;47.054;15.408;2023-03-15T08:02:00;0.5;;;0.2;;
23252;SDS011;11795;47.054;15.408;2023-03-15T08:04:00;0.5;;;0.2;;
23252;SDS011;11795;47.054;15.408;2023-03-15T08:06:00;0.5;;;0.2;;
23252;SDS011;11795;47.054;15.408;2023-03-15T08:08:00;0.3;;;0.1;;
23252;SDS011;11795;47.054;15.408;2023-03-15T08:10:01;0.3;;;0.1;;
23252;SDS011;11795;47.054;15.408;2023-03-15T08:12:00;0.7;;;0.2;;
23252;SDS011;11795;47.054;15.408;2023-03-15T08:14:00;0.7;;;0.2;;
23252;SDS011;11795;47.054;15.408;2023-03-15T08:16:00;0.7;;;0.2;;
23252;SDS011;11795;47.054;15.408;2023-03-15T08:18:00;1.5;;;0.1;;
23252;SDS011;11795;47.054;15.408;2023-03-15T08:20:09;1.5;;;0.1;;
23252;SDS011;11795;47.054;15.408;2023-03-15T08:22:00;0.3;;;0.1;;
23252;SDS011;11795;47.054;15.408;2023-03-15T08:24:00;0.3;;;0.1;;
23252;SDS011;11795;47.054;15.408;2023-03-15T08:26:00;0.3;;;0.1;;
23252;SDS011;11795;47.054;15.408;2023-03-15T08:28:00;1.3;;;0.1;;
23252;SDS011;11795;47.054;15.408;2023-03-15T08:30:00;1.3;;;0.1;;
23252;SDS011;11795;47.054;15.408;2023-03-15T08:32:00;1.2;;;0.2;;
23252;SDS011;11795;47.054;15.408;2023-03-15T08:34:00;1.2;;;0.2;;
23252;SDS011;11795;47.054;15.408;2023-03-15T08:36:00;1.2;;;0.2;;
23252;SDS011;11795;47.054;15.408;2023-03-15T08:38:01;0.4;;;0.1;;
23252;SDS011;11795;47.054;15.408;2023-03-15T08:40:05;0.4;;;0.1;;
23252;SDS011;11795;47.054;15.408;2023-03-15T08:42:00;0.8;;;0.2;;
23252;SDS011;11795;47.054;15.408;2023-03-15T08:44:00;0.8;;;0.2;;
23252;SDS011;11795;47.054;15.408;2023-03-15T08:46:00;0.8;;;0.2;;
23252;SDS011;11795;47.054;15.408;2023-03-15T08:48:00;0.3;;;0.1;;
23252;SDS011;11795;47.054;15.408;2023-03-15T08:50:00;0.3;;;0.1;;
23252;SDS011;11795;47.054;15.408;2023-03-15T08:52:00;1.0;;;0.1;;
23252;SDS011;11795;47.054;15.408;2023-03-15T08:54:03;1.0;;;0.1;;
23252;SDS011;11795;47.054;15.408;2023-03-15T08:56:00;1.0;;;0.1;;
23252;SDS011;11795;47.054;15.408;2023-03-15T08:58:01;1.4;;;0.2;;
23252;SDS011;11795;47.054;15.408;2023-03-15T09:00:01;1.4;;;0.2;;
23252;SDS011;11795;47.054;15.408;2023-03-15T09:02:00;0.2;;;0.0;;
23252;SDS011;11795;47.054;15.408;2023-03-15T09:04:02;0.2;;;0.0;;
23252;SDS011;11795;47.054;15.408;2023-03-15T09:06:00;0.2;;;0.0;;
23252;SDS011;11795;47.054;15.408;2023-03-15T09:08:00;0.8;;;0.2;;
23252;SDS011;11795;47.054;15.408;2023-03-15T09:10:00;0.8;;;0.2;;
23252;SDS011;11795;47.054;15.408;2023-03-15T09:12:00;2.3;;;0.2;;
23252;SDS011;11795;47.054;15.408;2023-03-15T09:14:00;2.3;;;0.2;;
23252;SDS011;11795;47.054;15.408;2023-03-15T09:16:02;2.3;;;0.2;;
23252;SDS011;11795;47.054;15.408;2023-03-15T09:18:00;1.2;;;0.2;;
23252;SDS011;11795;47.054;15.408;2023-03-15T09:20:00;1.2;;;0.2;;
23252;SDS011;11795;47.054;15.408;2023-03-15T09:22:01;0.6;;;0.1;;
23252;SDS011;11795;47.054;15.408;2023-03-15T09:24:00;0.6;;;0.1;;
23252;SDS011;11795;47.054;15.408;2023-03-15T09:26:00;0.6;;;0.1;;
23252;SDS011;11795;47.054;15.408;2023-03-15T09:28:00;0.9;;;0.2;;
23252;SDS011;11795;47.054;15.408;2023-03-15T09:30:00;0.9;;;0.2;;
23252;SDS011;11795;47.054;15.408;2023-03-15T09:32:01;2.1;;;0.2;;
23252;SDS011;11795;47.054;15.408;2023-03-15T09:34:00;2.1;;;0.2;;
23252;SDS011;11795;47.054;15.408;2023-03-15T09:36:00;2.1;;;0.2;;
23252;SDS011;11795;47.054;15.408;2023-03-15T09:38:02;0.8;;;0.1;;
23252;SDS011;11795;47.054;15.408;2023-03-15T09:40:01;0.8;;;0.1;;
23252;SDS011;11795;47.054;15.408;2023-03-15T09:42:00;0.1;;;0.0;;
23252;SDS011;11795;47.054;15.408;2023-03-15T09:44:04;0.1;;;0.0;;
23252;SDS011;11795;47.054;15.408;2023-03-15T09:46:02;0.1;;;0.0;;
23252;SDS011;11795;47.054;15.408;2023-03-15T09:48:02;0.7;;;0.1;;
23252;SDS011;11795;47.054;15.408;2023-03-15T09:50:02;0.7;;;0.1;;
23252;SDS011;11795;47.054;15.408;2023-03-15T09:52:01;0.4;;;0.1;;
23252;SDS011;11795;47.054;15.408;2023-03-15T09:54:02;0.4;;;0.1;;
23252;SDS011;11795;47.054;15.408;2023-03-15T09:56:00;0.4;;;0.1;;
23252;SDS011;11795;47.054;15.408;2023-03-15T09:58:02;0.4;;;0.0;;
23252;SDS011;11795;47.054;15.408;2023-03-15T10:00:00;0.4;;;0.0;;
23252;SDS011;11795;47.054;15.408;2023-03-15T10:02:01;0.4;;;0.1;;
23252;SDS011;11795;47.054;15.408;2023-03-15T10:04:02;0.4;;;0.1;;
23252;SDS011;11795;47.054;15.408;2023-03-15T10:06:01;0.4;;;0.1;;
23252;SDS011;11795;47.054;15.408;2023-03-15T10:08:00;0.9;;;0.1;;
23252;SDS011;11795;47.054;15.408;2023-03-15T10:10:07;0.9;;;0.1;;
23252;SDS011;11795;47.054;15.408;2023-03-15T10:12:02;1.4;;;0.1;;
23252;SDS011;11795;47.054;15.408;2023-03-15T10:14:05;1.4;;;0.1;;
23252;SDS011;11795;47.054;15.408;2023-03-15T10:16:03;1.4;;;0.1;;
23252;SDS011;11795;47.054;15.408;2023-03-15T10:18:05;1.2;;;0.1;;
23252;SDS011;11795;47.054;15.408;2023-03-15T10:20:02;1.2;;;0.1;;
23252;SDS011;11795;47.054;15.408;2023-03-15T10:22:02;4.7;;;0.2;;
23252;SDS011;11795;47.054;15.408;2023-03-15T10:24:00;4.7;;;0.2;;
23252;SDS011;11795;47.054;15.408;2023-03-15T10:26:00;4.7;;;0.2;;
23252;SDS011;11795;47.054;15.408;2023-03-15T10:28:01;0.1;;;0.0;;
23252;SDS011;11795;47.054;15.408;2023-03-15T10:30:00;0.1;;;0.0;;
23252;SDS011;11795;47.054;15.408;2023-03-15T10:32:00;0.4;;;0.0;;
23252;SDS011;11795;47.054;15.408;2023-03-15T10:34:01;0.4;;;0.0;;
23252;SDS011;11795;47.054;15.408;2023-03-15T10:36:01;0.4;;;0.0;;
23252;SDS011;11795;47.054;15.408;2023-03-15T10:38:01;0.2;;;0.0;;
23252;SDS011;11795;47.054;15.408;2023-03-15T10:40:00;0.2;;;0.0;;
23252;SDS011;11795;47.054;15.408;2023-03-15T10:42:00;0.6;;;0.2;;
23252;SDS011;11795;47.054;15.408;2023-03-15T10:44:01;0.6;;;0.2;;
23252;SDS011;11795;47.054;15.408;2023-03-15T10:46:01;0.6;;;0.2;;
23252;SDS011;11795;47.054;15.408;2023-03-15T10:48:00;1.2;;;0.1;;
23252;SDS011;11795;47.054;15.408;2023-03-15T10:50:00;1.2;;;0.1;;
23252;SDS011;11795;47.054;15.408;2023-03-15T10:52:00;1.3;;;0.2;;
23252;SDS011;11795;47.054;15.408;2023-03-15T10:54:02;1.3;;;0.2;;
23252;SDS011;11795;47.054;15.408;2023-03-15T10:56:02;1.3;;;0.2;;
23252;SDS011;11795;47.054;15.408;2023-03-15T11:00:20;0.8;;;0.2;;
23252;SDS011;11795;47.054;15.408;2023-03-15T11:04:01;0.2;;;0.2;;
23252;SDS011;11795;47.054;15.408;2023-03-15T11:06:01;0.2;;;0.2;;
23252;SDS011;11795;47.054;15.408;2023-03-15T11:08:00;0.8;;;0.1;;
23252;SDS011;11795;47.054;15.408;2023-03-15T11:10:01;0.8;;;0.1;;
23252;SDS011;11795;47.054;15.408;2023-03-15T11:12:02;0.3;;;0.1;;
23252;SDS011;11795;47.054;15.408;2023-03-15T11:14:00;0.3;;;0.1;;
23252;SDS011;11795;47.054;15.408;2023-03-15T11:16:03;0.3;;;0.1;;
23252;SDS011;11795;47.054;15.408;2023-03-15T11:18:00;0.1;;;0.0;;
23252;SDS011;11795;47.054;15.408;2023-03-15T11:22:00;0.9;;;0.3;;
23252;SDS011;11795;47.054;15.408;2023-03-15T11:24:01;0.9;;;0.3;;
23252;SDS011;11795;47.054;15.408;2023-03-15T11:26:00;0.9;;;0.3;;
23252;SDS011;11795;47.054;15.408;2023-03-15T11:28:00;0.9;;;0.4;;
23252;SDS011;11795;47.054;15.408;2023-03-15T11:30:00;0.9;;;0.4;;
23252;SDS011;11795;47.054;15.408;2023-03-15T11:32:03;8.5;;;5.1;;
23252;SDS011;11795;47.054;15.408;2023-03-15T11:34:02;8.5;;;5.1;;
23252;SDS011;11795;47.054;15.408;2023-03-15T11:36:02;8.5;;;5.1;;
23252;SDS011;11795;47.054;15.408;2023-03-15T11:38:03;4.0;;;2.3;;
23252;SDS011;11795;47.054;15.408;2023-03-15T11:40:02;4.0;;;2.3;;
23252;SDS011;11795;47.054;15.408;2023-03-15T11:42:02;0.7;;;0.1;;
23252;SDS011;11795;47.054;15.408;2023-03-15T11:44:02;0.7;;;0.1;;
23252;SDS011;11795;47.054;15.408;2023-03-15T11:46:01;0.7;;;0.1;;
23252;SDS011;11795;47.054;15.408;2023-03-15T11:48:02;1.2;;;0.1;;
23252;SDS011;11795;47.054;15.408;2023-03-15T11:50:01;1.2;;;0.1;;
23252;SDS011;11795;47.054;15.408;2023-03-15T11:52:00;0.6;;;0.3;;
23252;SDS011;11795;47.054;15.408;2023-03-15T11:54:04;0.6;;;0.3;;
23252;SDS011;11795;47.054;15.408;2023-03-15T11:56:07;0.6;;;0.3;;
23252;SDS011;11795;47.054;15.408;2023-03-15T12:02:06;0.8;;;0.2;;
23252;SDS011;11795;47.054;15.408;2023-03-15T12:06:03;0.8;;;0.2;;
23252;SDS011;11795;47.054;15.408;2023-03-15T12:08:15;0.3;;;0.1;;
23252;SDS011;11795;47.054;15.408;2023-03-15T12:12:01;0.9;;;0.4;;
23252;SDS011;11795;47.054;15.408;2023-03-15T12:14:02;0.9;;;0.4;;
23252;SDS011;11795;47.054;15.408;2023-03-15T12:16:00;0.9;;;0.4;;
23252;SDS011;11795;47.054;15.408;2023-03-15T12:18:01;1.2;;;0.2;;
23252;SDS011;11795;47.054;15.408;2023-03-15T12:20:03;1.2;;;0.2;;
23252;SDS011;11795;47.054;15.408;2023-03-15T12:22:00;1.2;;;0.2;;
23252;SDS011;11795;47.054;15.408;2023-03-15T12:24:01;1.2;;;0.2;;
23252;SDS011;11795;47.054;15.408;2023-03-15T12:26:04;1.2;;;0.2;;